Time;durP1;ratioP1;P1;durP2;ratioP2;P2;SDS_P1;SDS_P2;PMS_P1;PMS_P2;Temp;Humidity;BMP_temperature;BMP_pressure;BME280_temperature;BME280_humidity;BME280_pressure;Samples;Min_cycle;Max_cycle;Signal;HPM_P1;HPM_P2
2020/12/30 00:01:06;;;;;;;0.80;0.50;;;4.80;99.90;;;;;;5070253;28;20236;-81
2020/12/30 00:03:34;;;;;;;1.20;0.40;;;4.70;99.90;;;;;;5070017;28;20284;-79
2020/12/30 00:06:01;;;;;;;1.03;0.50;;;4.70;99.90;;;;;;5070101;28;20246;-79
2020/12/30 00:08:28;;;;;;;5.37;1.07;;;4.70;99.90;;;;;;5069955;28;20238;-82
2020/12/30 00:10:55;;;;;;;3.33;1.10;;;4.70;99.90;;;;;;5070266;28;20311;-82
2020/12/30 00:13:22;;;;;;;3.40;0.70;;;4.80;99.90;;;;;;5069952;28;20757;-83
2020/12/30 00:15:48;;;;;;;1.40;0.50;;;4.80;99.90;;;;;;5071699;28;20242;-80
2020/12/30 00:18:14;;;;;;;2.27;0.77;;;4.80;99.90;;;;;;5073813;28;20205;-80
2020/12/30 00:20:41;;;;;;;1.17;0.50;;;4.80;99.90;;;;;;5060421;28;20238;-80
2020/12/30 00:23:07;;;;;;;0.80;0.80;;;4.90;99.90;;;;;;5073592;28;20206;-81
2020/12/30 00:25:35;;;;;;;1.33;0.50;;;4.90;99.90;;;;;;5073307;28;20297;-76
2020/12/30 00:28:01;;;;;;;0.53;0.50;;;4.90;99.90;;;;;;5072628;28;20217;-79
2020/12/30 00:30:28;;;;;;;1.70;0.70;;;4.90;99.90;;;;;;5073417;28;20279;-77
2020/12/30 00:32:54;;;;;;;0.53;0.40;;;5.00;99.90;;;;;;5073227;28;20206;-77
2020/12/30 00:35:21;;;;;;;1.43;0.90;;;4.90;99.90;;;;;;5073369;28;20251;-77
2020/12/30 00:37:47;;;;;;;0.50;0.40;;;4.90;99.90;;;;;;5073520;28;20206;-75
2020/12/30 00:40:14;;;;;;;0.50;0.40;;;4.90;99.90;;;;;;5059065;28;20229;-83
2020/12/30 00:42:41;;;;;;;0.93;0.60;;;4.90;99.90;;;;;;5073639;28;20568;-77
2020/12/30 00:45:09;;;;;;;0.57;0.40;;;4.80;99.90;;;;;;5074106;28;20198;-83
2020/12/30 00:47:36;;;;;;;1.80;0.40;;;4.80;99.90;;;;;;5074247;28;20210;-82
2020/12/30 00:50:04;;;;;;;0.67;0.40;;;4.80;99.90;;;;;;5074162;28;20203;-83
2020/12/30 00:52:30;;;;;;;1.30;0.90;;;4.70;99.90;;;;;;5074222;27;20249;-83
2020/12/30 00:54:57;;;;;;;2.73;0.63;;;4.70;99.90;;;;;;5073464;28;20234;-83
2020/12/30 00:57:23;;;;;;;0.50;0.30;;;4.70;99.90;;;;;;5072186;28;20270;-82
2020/12/30 00:59:51;;;;;;;0.60;0.40;;;4.70;99.90;;;;;;5073824;28;20266;-83
2020/12/30 01:02:17;;;;;;;0.67;0.50;;;4.80;99.90;;;;;;5073512;28;20202;-83
2020/12/30 01:04:43;;;;;;;1.27;0.63;;;4.80;99.90;;;;;;5074108;28;20579;-83
2020/12/30 01:07:11;;;;;;;0.70;0.40;;;4.80;99.90;;;;;;5074741;28;20580;-84
2020/12/30 01:09:38;;;;;;;0.53;0.40;;;4.80;99.90;;;;;;5060296;28;20605;-83
2020/12/30 01:12:06;;;;;;;0.77;0.20;;;4.80;99.90;;;;;;5073907;28;20238;-83
2020/12/30 01:14:32;;;;;;;1.43;0.43;;;4.70;99.90;;;;;;5073197;28;20622;-83
2020/12/30 01:17:00;;;;;;;0.60;0.10;;;4.60;99.90;;;;;;5073598;28;20716;-82
2020/12/30 01:19:27;;;;;;;1.10;0.40;;;4.70;99.90;;;;;;5072889;28;20634;-84
2020/12/30 01:21:53;;;;;;;0.20;0.20;;;4.60;99.90;;;;;;5064004;28;20575;-83
2020/12/30 01:24:20;;;;;;;0.70;0.40;;;4.70;99.90;;;;;;5067699;28;20213;-80
2020/12/30 01:26:48;;;;;;;1.07;0.20;;;4.70;99.90;;;;;;5072627;28;20580;-77
2020/12/30 01:29:15;;;;;;;0.97;0.50;;;4.70;99.90;;;;;;5071936;28;20285;-79
2020/12/30 01:31:41;;;;;;;0.40;0.30;;;4.60;99.90;;;;;;5072256;28;20692;-78
2020/12/30 01:34:09;;;;;;;0.83;0.20;;;4.70;99.90;;;;;;5072578;28;20669;-78
2020/12/30 01:36:36;;;;;;;0.40;0.30;;;4.70;99.90;;;;;;5072021;28;20209;-78
2020/12/30 01:39:03;;;;;;;0.40;0.30;;;4.70;99.90;;;;;;5072226;28;20210;-78
2020/12/30 01:41:30;;;;;;;3.30;0.50;;;4.70;99.90;;;;;;5071976;28;20206;-79
2020/12/30 01:44:01;;;;;;;1.00;0.30;;;4.70;99.90;;;;;;5072704;28;20213;-78
2020/12/30 01:46:37;;;;;;;0.37;0.37;;;4.70;99.90;;;;;;5071875;28;20229;-78
2020/12/30 01:49:05;;;;;;;0.97;0.20;;;4.70;99.90;;;;;;5072343;28;20213;-78
2020/12/30 01:51:34;;;;;;;0.87;0.27;;;4.60;99.90;;;;;;5057726;28;20379;-78
2020/12/30 01:54:01;;;;;;;0.20;0.20;;;4.60;99.90;;;;;;5072261;28;20213;-80
2020/12/30 01:56:32;;;;;;;0.13;0.13;;;4.60;99.90;;;;;;5071509;28;20581;-80
2020/12/30 01:58:59;;;;;;;2.13;0.37;;;4.50;99.90;;;;;;5071419;28;20203;-80
2020/12/30 02:01:29;;;;;;;0.30;0.20;;;4.60;99.90;;;;;;5071684;28;20271;-79
2020/12/30 02:03:58;;;;;;;0.30;0.20;;;4.50;99.90;;;;;;5057808;28;20207;-79
2020/12/30 02:06:26;;;;;;;0.53;0.30;;;4.50;99.90;;;;;;5071854;28;20212;-78
2020/12/30 02:08:54;;;;;;;0.20;0.20;;;4.40;99.90;;;;;;5071708;28;20259;-78
2020/12/30 02:11:25;;;;;;;0.33;0.17;;;4.40;99.90;;;;;;5056457;28;20218;-79
2020/12/30 02:14:00;;;;;;;0.10;0.10;;;4.30;99.90;;;;;;5071754;28;20206;-78
2020/12/30 02:16:27;;;;;;;0.40;0.20;;;4.20;99.90;;;;;;5057540;28;20218;-78
2020/12/30 02:18:54;;;;;;;0.27;0.20;;;4.20;99.90;;;;;;5071562;28;20210;-79
2020/12/30 02:21:20;;;;;;;1.43;0.30;;;4.20;99.90;;;;;;5070743;28;20226;-78
2020/12/30 02:23:49;;;;;;;0.20;0.10;;;4.20;99.90;;;;;;5071475;28;20643;-79
2020/12/30 02:26:16;;;;;;;0.20;0.20;;;4.10;99.90;;;;;;5070868;28;20206;-79
2020/12/30 02:28:43;;;;;;;0.10;0.10;;;4.20;99.90;;;;;;5068886;28;20210;-78
2020/12/30 02:31:10;;;;;;;0.30;0.20;;;4.10;99.90;;;;;;5067273;28;20255;-78
2020/12/30 02:33:36;;;;;;;0.33;0.20;;;4.10;99.90;;;;;;5071450;28;20210;-78
2020/12/30 02:36:03;;;;;;;1.63;0.10;;;4.10;99.90;;;;;;5071759;28;20253;-82
2020/12/30 02:38:30;;;;;;;1.13;0.30;;;4.00;99.90;;;;;;5070353;28;20245;-81
2020/12/30 02:40:59;;;;;;;1.47;0.20;;;3.90;99.90;;;;;;5071326;28;20721;-81
2020/12/30 02:43:27;;;;;;;0.30;0.20;;;3.80;99.90;;;;;;5070795;28;20210;-81
2020/12/30 02:45:54;;;;;;;0.40;0.20;;;3.80;99.90;;;;;;5071040;28;20206;-76
2020/12/30 02:48:20;;;;;;;0.83;0.37;;;3.70;99.90;;;;;;5071506;28;20228;-84
2020/12/30 02:50:47;;;;;;;0.47;0.20;;;3.70;99.90;;;;;;5071045;28;20654;-82
2020/12/30 02:53:13;;;;;;;0.17;0.10;;;3.90;99.90;;;;;;5071068;28;20609;-81
2020/12/30 02:55:40;;;;;;;0.20;0.20;;;4.00;99.90;;;;;;5071244;28;20585;-78
2020/12/30 02:58:07;;;;;;;0.77;0.10;;;4.00;99.90;;;;;;5067557;28;20203;-79
2020/12/30 03:00:34;;;;;;;0.20;0.20;;;4.00;99.90;;;;;;5064640;28;20238;-79
2020/12/30 03:03:01;;;;;;;0.17;0.17;;;4.00;99.90;;;;;;5056680;28;20210;-79
2020/12/30 03:05:27;;;;;;;0.17;0.17;;;3.90;99.90;;;;;;5070686;28;20241;-79
2020/12/30 03:07:54;;;;;;;0.30;0.30;;;3.70;99.90;;;;;;5070818;28;20206;-79
2020/12/30 03:10:20;;;;;;;0.43;0.10;;;3.50;99.90;;;;;;5070560;28;20743;-81
2020/12/30 03:12:47;;;;;;;1.27;0.20;;;3.50;99.90;;;;;;5070706;28;20202;-82
2020/12/30 03:15:13;;;;;;;0.20;0.20;;;3.50;99.90;;;;;;5070775;28;20206;-81
2020/12/30 03:17:41;;;;;;;0.57;0.20;;;3.40;99.90;;;;;;5071239;28;20234;-83
2020/12/30 03:20:08;;;;;;;0.23;0.23;;;3.30;99.90;;;;;;5071200;28;20221;-82
2020/12/30 03:22:34;;;;;;;1.70;0.20;;;3.40;99.90;;;;;;5070525;28;20210;-81
2020/12/30 03:25:00;;;;;;;0.30;0.20;;;3.50;99.90;;;;;;5070662;28;20589;-80
2020/12/30 03:27:27;;;;;;;0.57;0.30;;;3.60;99.90;;;;;;5070631;28;20205;-80
2020/12/30 03:29:53;;;;;;;0.97;0.30;;;3.60;99.90;;;;;;5070651;28;20238;-82
2020/12/30 03:32:20;;;;;;;2.50;0.40;;;3.70;99.90;;;;;;5070709;28;20259;-83
2020/12/30 03:34:47;;;;;;;0.57;0.37;;;3.80;99.90;;;;;;5070565;28;20303;-84
2020/12/30 03:37:16;;;;;;;0.27;0.20;;;3.80;99.90;;;;;;5070412;28;20750;-83
2020/12/30 03:39:43;;;;;;;0.50;0.30;;;3.70;99.90;;;;;;5070999;28;20230;-83
2020/12/30 03:42:09;;;;;;;0.30;0.20;;;3.80;99.90;;;;;;5071301;28;20198;-83
2020/12/30 03:44:36;;;;;;;1.57;0.40;;;3.70;99.90;;;;;;5071057;28;20703;-83
2020/12/30 03:47:05;;;;;;;2.10;0.60;;;3.70;99.90;;;;;;5070506;28;20198;-82
2020/12/30 03:49:32;;;;;;;1.03;0.27;;;3.70;99.90;;;;;;5071091;28;20205;-81
2020/12/30 03:51:59;;;;;;;1.53;0.40;;;3.70;99.90;;;;;;5074504;28;20228;-78
2020/12/30 03:54:26;;;;;;;1.70;0.87;;;3.80;99.90;;;;;;5073979;28;20594;-78
2020/12/30 03:56:53;;;;;;;0.50;0.50;;;3.90;99.90;;;;;;5074371;28;20780;-82
2020/12/30 03:59:20;;;;;;;0.93;0.50;;;4.00;99.90;;;;;;5074280;28;20242;-83
2020/12/30 04:01:46;;;;;;;2.73;0.50;;;4.10;99.90;;;;;;5075036;28;20256;-84
2020/12/30 04:04:13;;;;;;;1.70;0.63;;;4.30;99.90;;;;;;5073755;28;20206;-80
2020/12/30 04:06:41;;;;;;;2.47;0.57;;;4.40;99.90;;;;;;5074380;28;20244;-78
2020/12/30 04:09:08;;;;;;;1.53;0.63;;;4.50;99.90;;;;;;5074434;28;20214;-78
2020/12/30 04:11:35;;;;;;;0.50;0.50;;;4.50;99.90;;;;;;5074054;28;20682;-78
2020/12/30 04:14:01;;;;;;;1.87;1.33;;;4.70;99.90;;;;;;5074145;28;20237;-80
2020/12/30 04:16:28;;;;;;;2.43;0.40;;;4.70;99.90;;;;;;5073689;28;20214;-80
2020/12/30 04:18:54;;;;;;;1.63;0.60;;;4.70;99.90;;;;;;5074302;28;20206;-83
2020/12/30 04:21:22;;;;;;;2.70;0.63;;;4.90;99.90;;;;;;5073388;28;20230;-78
2020/12/30 04:23:48;;;;;;;2.90;0.73;;;4.90;99.90;;;;;;5073715;28;20636;-78
2020/12/30 04:26:17;;;;;;;5.40;0.97;;;4.90;99.90;;;;;;5073200;28;20234;-80
2020/12/30 04:28:44;;;;;;;6.47;1.63;;;4.90;99.90;;;;;;5073933;28;20693;-84
2020/12/30 04:31:10;;;;;;;1.80;0.70;;;5.00;99.90;;;;;;5074553;28;20267;-85
2020/12/30 04:33:37;;;;;;;1.93;1.43;;;4.80;99.90;;;;;;5074409;28;20202;-82
2020/12/30 04:36:04;;;;;;;1.80;0.50;;;4.70;99.90;;;;;;5073862;28;20221;-82
2020/12/30 04:38:32;;;;;;;2.00;0.60;;;4.60;99.90;;;;;;5073673;28;20433;-83
2020/12/30 04:40:59;;;;;;;3.57;0.70;;;4.60;99.90;;;;;;5073320;28;20226;-81
2020/12/30 04:43:28;;;;;;;1.50;0.57;;;4.50;99.90;;;;;;5071797;28;20209;-81
2020/12/30 04:45:55;;;;;;;1.07;0.30;;;4.40;99.90;;;;;;5073025;28;20255;-82
2020/12/30 04:48:24;;;;;;;5.13;0.70;;;4.40;99.90;;;;;;5073297;28;20217;-83
2020/12/30 04:50:51;;;;;;;2.03;0.87;;;4.50;99.90;;;;;;5060855;28;20255;-85
2020/12/30 04:53:21;;;;;;;1.10;0.40;;;4.50;99.90;;;;;;5073891;28;20279;-85
2020/12/30 04:55:49;;;;;;;1.13;0.57;;;4.40;99.90;;;;;;5073339;28;20251;-80
2020/12/30 04:58:18;;;;;;;1.20;0.60;;;4.50;99.90;;;;;;5073066;28;20251;-80
2020/12/30 05:00:47;;;;;;;5.17;0.60;;;4.50;99.90;;;;;;5073003;28;20221;-79
2020/12/30 05:03:14;;;;;;;3.30;0.93;;;4.50;99.90;;;;;;5072888;28;20592;-84
2020/12/30 05:05:42;;;;;;;2.27;0.50;;;4.30;99.90;;;;;;5072496;28;20228;-84
2020/12/30 05:08:11;;;;;;;1.93;0.60;;;4.30;99.90;;;;;;5074315;28;20206;-84
2020/12/30 05:10:38;;;;;;;1.17;0.60;;;4.20;99.90;;;;;;5073886;28;20237;-86
2020/12/30 05:13:06;;;;;;;3.27;0.50;;;4.10;99.90;;;;;;5074035;28;20245;-87
2020/12/30 05:15:32;;;;;;;2.07;0.47;;;4.00;99.90;;;;;;5073097;28;20224;-87
2020/12/30 05:18:03;;;;;;;2.70;0.67;;;4.10;99.90;;;;;;5073397;28;20202;-85
2020/12/30 05:20:35;;;;;;;9.77;2.30;;;4.20;99.90;;;;;;5073112;28;20222;-86
2020/12/30 05:23:02;;;;;;;1.60;0.70;;;4.20;99.90;;;;;;5073604;28;20251;-83
2020/12/30 05:25:29;;;;;;;1.97;0.90;;;4.30;99.90;;;;;;5073076;28;20307;-84
2020/12/30 05:27:58;;;;;;;1.60;0.40;;;4.30;99.90;;;;;;5073173;28;20207;-84
2020/12/30 05:30:24;;;;;;;2.03;1.20;;;4.20;99.90;;;;;;5072700;28;20206;-77
2020/12/30 05:32:54;;;;;;;3.53;0.87;;;4.30;99.90;;;;;;5072531;28;20206;-76
2020/12/30 05:35:21;;;;;;;1.37;0.63;;;4.50;99.90;;;;;;5072037;28;20225;-76
2020/12/30 05:37:48;;;;;;;2.87;0.70;;;4.60;99.90;;;;;;5072347;28;20206;-76
2020/12/30 05:40:22;;;;;;;5.63;0.70;;;4.60;99.90;;;;;;5071911;28;20226;-78
2020/12/30 05:42:49;;;;;;;1.10;0.50;;;4.70;99.90;;;;;;5072317;28;20203;-78
2020/12/30 05:45:21;;;;;;;6.87;0.80;;;4.80;99.90;;;;;;5070958;28;20228;-80
2020/12/30 05:47:48;;;;;;;7.37;1.70;;;4.80;99.90;;;;;;5072680;28;20631;-78
2020/12/30 05:50:23;;;;;;;2.83;0.70;;;4.90;99.90;;;;;;5071787;28;20214;-78
2020/12/30 05:52:51;;;;;;;3.10;0.73;;;5.00;99.90;;;;;;5072337;28;20232;-78
2020/12/30 05:55:25;;;;;;;3.23;0.73;;;5.00;99.90;;;;;;5071666;28;20669;-84
2020/12/30 05:57:53;;;;;;;9.27;0.90;;;5.10;99.90;;;;;;5073179;28;20288;-82
2020/12/30 06:00:19;;;;;;;6.40;0.77;;;5.10;99.90;;;;;;5071944;28;20240;-77
2020/12/30 06:02:48;;;;;;;1.87;0.70;;;5.10;99.90;;;;;;5072151;28;20206;-77
2020/12/30 06:05:16;;;;;;;4.13;1.70;;;5.10;99.90;;;;;;5071378;28;20264;-77
2020/12/30 06:07:44;;;;;;;5.10;1.47;;;5.10;99.90;;;;;;5071713;28;20625;-77
2020/12/30 06:10:12;;;;;;;2.60;0.87;;;5.00;99.90;;;;;;5072110;28;20209;-77
2020/12/30 06:12:49;;;;;;;2.10;0.60;;;4.80;99.90;;;;;;5071914;28;20202;-77
2020/12/30 06:15:17;;;;;;;0.83;0.60;;;4.90;99.90;;;;;;5070490;28;20245;-78
2020/12/30 06:17:55;;;;;;;3.37;1.23;;;5.00;99.90;;;;;;5071286;28;20198;-79
2020/12/30 06:20:24;;;;;;;1.50;0.63;;;4.70;99.90;;;;;;5071053;28;20222;-79
2020/12/30 06:23:02;;;;;;;3.73;1.00;;;4.70;99.90;;;;;;5071387;28;20264;-80
2020/12/30 06:25:30;;;;;;;6.13;0.73;;;4.70;99.90;;;;;;5071273;28;20213;-77
2020/12/30 06:27:57;;;;;;;2.53;0.90;;;4.80;99.90;;;;;;5071318;28;20209;-77
2020/12/30 06:30:24;;;;;;;3.60;1.23;;;4.70;99.90;;;;;;5070768;28;20237;-78
2020/12/30 06:32:51;;;;;;;4.90;1.17;;;4.50;99.90;;;;;;5070937;28;20567;-77
2020/12/30 06:35:26;;;;;;;2.17;0.87;;;4.60;99.90;;;;;;5070840;28;20248;-78
2020/12/30 06:37:52;;;;;;;7.07;1.37;;;4.60;99.90;;;;;;5071291;28;20245;-77
2020/12/30 06:40:25;;;;;;;2.37;0.70;;;4.40;99.90;;;;;;5070551;28;20702;-77
2020/12/30 06:42:55;;;;;;;5.20;1.10;;;4.40;99.90;;;;;;5071251;28;20213;-78
2020/12/30 06:45:51;;;;;;;2.80;0.87;;;4.50;99.90;;;;;;5060831;28;20629;-77
2020/12/30 06:48:18;;;;;;;5.07;0.90;;;4.40;99.90;;;;;;5070840;28;20206;-77
2020/12/30 06:50:45;;;;;;;1.60;0.70;;;4.40;99.90;;;;;;5070965;28;20210;-82
2020/12/30 06:53:33;;;;;;;5.17;1.00;;;4.30;99.90;;;;;;5071215;28;20202;-77
2020/12/30 06:56:03;;;;;;;2.70;1.17;;;4.30;99.90;;;;;;5058150;28;20279;-77
2020/12/30 06:58:49;;;;;;;2.80;0.67;;;4.40;99.90;;;;;;5070566;28;20237;-79
2020/12/30 07:01:17;;;;;;;3.63;0.80;;;4.60;99.90;;;;;;5058649;28;20245;-84
2020/12/30 07:03:44;;;;;;;4.00;1.63;;;4.80;99.90;;;;;;5070676;28;20249;-80
2020/12/30 07:06:30;;;;;;;3.03;1.00;;;4.70;99.90;;;;;;5070898;28;20198;-79
2020/12/30 07:09:00;;;;;;;6.40;1.33;;;4.50;99.90;;;;;;5070530;28;20202;-78
2020/12/30 07:11:49;;;;;;;2.13;1.23;;;4.40;99.90;;;;;;5070326;28;20584;-78
2020/12/30 07:14:17;;;;;;;1.77;0.63;;;4.30;99.90;;;;;;5069791;28;20208;-77
2020/12/30 07:16:53;;;;;;;4.73;1.27;;;4.30;99.90;;;;;;5070513;28;20239;-78
2020/12/30 07:19:22;;;;;;;1.87;0.90;;;4.30;99.90;;;;;;5071085;28;20570;-84
2020/12/30 07:22:05;;;;;;;1.80;0.73;;;4.30;99.90;;;;;;5071144;28;20269;-82
2020/12/30 07:24:34;;;;;;;2.40;0.70;;;4.40;99.90;;;;;;5070584;28;20263;-84
2020/12/30 07:27:03;;;;;;;6.70;0.90;;;4.50;99.90;;;;;;5071380;28;20210;-83
2020/12/30 07:29:30;;;;;;;4.97;1.33;;;4.70;99.90;;;;;;5070838;28;20210;-83
2020/12/30 07:32:00;;;;;;;3.03;0.77;;;4.70;99.90;;;;;;5071226;28;20625;-83
2020/12/30 07:34:28;;;;;;;2.13;1.23;;;4.80;99.90;;;;;;5069752;28;20210;-81
2020/12/30 07:36:55;;;;;;;2.87;0.70;;;4.80;99.90;;;;;;5070194;28;20716;-78
2020/12/30 07:39:26;;;;;;;3.47;1.30;;;4.80;99.90;;;;;;5068154;28;20210;-80
2020/12/30 07:41:53;;;;;;;2.40;0.83;;;4.90;99.90;;;;;;5069350;28;20278;-77
2020/12/30 07:44:21;;;;;;;3.30;0.70;;;5.00;99.90;;;;;;5067523;28;20209;-82
2020/12/30 07:46:47;;;;;;;5.60;1.33;;;5.00;99.90;;;;;;5070503;28;20241;-79
2020/12/30 07:49:16;;;;;;;1.33;0.70;;;5.00;99.90;;;;;;5069956;28;20641;-78
2020/12/30 07:51:51;;;;;;;3.07;0.70;;;5.00;99.90;;;;;;5070193;28;20256;-81
2020/12/30 07:54:19;;;;;;;3.70;1.20;;;5.10;99.90;;;;;;5056931;28;20680;-79
2020/12/30 07:56:46;;;;;;;2.43;1.00;;;5.10;99.90;;;;;;5066229;28;20212;-78
2020/12/30 07:59:23;;;;;;;1.73;0.83;;;5.10;99.90;;;;;;5069816;28;20249;-78
2020/12/30 08:01:58;;;;;;;5.00;1.20;;;5.10;99.90;;;;;;5070003;28;20272;-78
2020/12/30 08:04:25;;;;;;;0.90;0.60;;;5.20;99.90;;;;;;5069528;28;20210;-79
2020/12/30 08:06:53;;;;;;;2.20;0.70;;;5.10;99.90;;;;;;5066935;28;20717;-77
2020/12/30 08:09:20;;;;;;;2.00;0.73;;;5.20;99.90;;;;;;5068208;28;20628;-76
2020/12/30 08:11:50;;;;;;;2.13;0.53;;;5.20;99.90;;;;;;5069817;28;20249;-76
2020/12/30 08:14:18;;;;;;;2.37;0.80;;;5.30;99.90;;;;;;5068988;28;20669;-77
2020/12/30 08:16:53;;;;;;;0.90;0.50;;;5.30;99.90;;;;;;5068302;28;20598;-79
2020/12/30 08:19:45;;;;;;;1.00;0.47;;;5.30;99.90;;;;;;5069152;28;20596;-76
2020/12/30 08:22:13;;;;;;;2.50;0.90;;;5.30;99.90;;;;;;5068925;28;20213;-77
2020/12/30 08:24:42;;;;;;;2.50;0.63;;;5.40;99.90;;;;;;5068617;28;20292;-74
2020/12/30 08:27:09;;;;;;;0.97;0.40;;;5.40;99.90;;;;;;5069995;28;20238;-73
2020/12/30 08:29:37;;;;;;;2.47;0.80;;;5.50;99.90;;;;;;5069591;28;20291;-70
2020/12/30 08:32:16;;;;;;;1.60;0.93;;;5.50;99.90;;;;;;5064875;28;20261;-72
2020/12/30 08:34:48;;;;;;;3.50;0.83;;;5.40;99.90;;;;;;5066732;28;20677;-73
2020/12/30 08:37:21;;;;;;;3.70;0.97;;;5.40;99.90;;;;;;5070935;28;20202;-72
2020/12/30 08:39:53;;;;;;;1.67;0.67;;;5.50;99.90;;;;;;5073143;28;20197;-72
2020/12/30 08:42:45;;;;;;;2.60;0.60;;;5.50;99.90;;;;;;5067912;28;20221;-72
2020/12/30 08:45:14;;;;;;;2.37;0.70;;;5.60;99.90;;;;;;5067989;28;20682;-72
2020/12/30 08:47:42;;;;;;;4.43;0.87;;;5.50;99.90;;;;;;5073744;28;20202;-74
2020/12/30 08:50:09;;;;;;;0.90;0.50;;;5.50;99.90;;;;;;5073048;28;20232;-75
2020/12/30 08:52:40;;;;;;;1.90;0.70;;;5.50;99.90;;;;;;5072404;28;20210;-73
2020/12/30 08:55:06;;;;;;;1.67;0.70;;;5.40;99.90;;;;;;5071420;28;20213;-74
2020/12/30 08:57:33;;;;;;;5.80;0.70;;;5.40;99.90;;;;;;5071371;28;20206;-74
2020/12/30 09:00:15;;;;;;;1.23;0.70;;;5.50;99.90;;;;;;5073066;28;20235;-77
2020/12/30 09:02:43;;;;;;;1.80;0.63;;;5.60;99.90;;;;;;5072462;28;20342;-74
2020/12/30 09:05:09;;;;;;;2.63;0.60;;;5.60;99.90;;;;;;5068095;28;20242;-75
2020/12/30 09:07:38;;;;;;;2.80;1.07;;;5.60;99.90;;;;;;5071281;28;20202;-75
2020/12/30 09:10:07;;;;;;;3.00;1.13;;;5.60;99.90;;;;;;5072965;28;20213;-78
2020/12/30 09:12:34;;;;;;;3.20;1.33;;;5.70;99.90;;;;;;5072564;28;20206;-74
2020/12/30 09:15:00;;;;;;;1.97;0.60;;;5.80;99.90;;;;;;5072955;28;20264;-76
2020/12/30 09:17:27;;;;;;;3.53;1.90;;;6.00;99.90;;;;;;5071949;28;20226;-75
2020/12/30 09:20:12;;;;;;;4.33;0.90;;;6.10;99.90;;;;;;5072283;28;20681;-74
2020/12/30 09:22:39;;;;;;;4.57;1.20;;;6.10;99.90;;;;;;5071675;28;20206;-74
2020/12/30 09:25:07;;;;;;;1.97;0.90;;;6.10;99.90;;;;;;5072792;28;20252;-74
2020/12/30 09:27:34;;;;;;;2.60;0.80;;;6.40;99.90;;;;;;5071801;28;20217;-74
2020/12/30 09:30:12;;;;;;;6.10;1.60;;;6.40;99.90;;;;;;5070891;28;20206;-74
2020/12/30 09:32:40;;;;;;;2.37;0.60;;;6.30;99.90;;;;;;5066135;28;20220;-73
2020/12/30 09:35:08;;;;;;;4.07;1.03;;;6.30;99.90;;;;;;5072298;28;20206;-73
2020/12/30 09:37:35;;;;;;;3.63;0.70;;;6.30;99.90;;;;;;5071262;28;20256;-72
2020/12/30 09:40:07;;;;;;;1.47;0.87;;;6.40;99.90;;;;;;5071825;28;20238;-71
2020/12/30 09:42:34;;;;;;;1.70;0.87;;;6.50;99.90;;;;;;5071303;28;20214;-72
2020/12/30 09:45:01;;;;;;;2.17;1.00;;;7.30;99.90;;;;;;5071692;28;20238;-71
2020/12/30 09:47:28;;;;;;;2.47;0.57;;;7.50;99.90;;;;;;5071247;28;20605;-72
2020/12/30 09:49:54;;;;;;;5.17;1.27;;;8.10;99.90;;;;;;5071598;28;20248;-72
2020/12/30 09:52:22;;;;;;;1.93;0.93;;;8.50;99.90;;;;;;5071056;28;20716;-73
2020/12/30 09:54:48;;;;;;;3.03;0.60;;;8.70;99.90;;;;;;5072084;28;20249;-80
2020/12/30 09:57:14;;;;;;;4.10;2.10;;;8.30;99.90;;;;;;5070946;28;20210;-74
2020/12/30 09:59:42;;;;;;;3.03;1.13;;;7.80;99.90;;;;;;5071941;28;20237;-75
2020/12/30 10:02:09;;;;;;;3.60;1.33;;;7.50;99.90;;;;;;5071291;28;20262;-76
2020/12/30 10:04:36;;;;;;;1.63;0.87;;;7.30;99.90;;;;;;5071497;28;20239;-74
2020/12/30 10:07:02;;;;;;;1.60;0.70;;;7.20;99.90;;;;;;5070899;28;20210;-74
2020/12/30 10:09:30;;;;;;;8.97;1.47;;;7.20;99.90;;;;;;5070930;28;20690;-75
2020/12/30 10:11:56;;;;;;;8.70;1.13;;;7.20;99.90;;;;;;5069331;28;20224;-74
2020/12/30 10:14:23;;;;;;;2.50;1.20;;;7.20;99.90;;;;;;5070845;28;20596;-75
2020/12/30 10:16:49;;;;;;;2.13;0.70;;;7.30;99.90;;;;;;5071014;28;20743;-74
2020/12/30 10:19:16;;;;;;;1.97;0.93;;;7.40;99.90;;;;;;5070900;28;20665;-73
2020/12/30 10:21:42;;;;;;;2.37;0.97;;;7.50;99.90;;;;;;5070922;28;20268;-74
2020/12/30 10:24:09;;;;;;;3.17;1.30;;;7.60;99.90;;;;;;5071411;28;20213;-74
2020/12/30 10:26:36;;;;;;;1.30;0.77;;;7.60;99.90;;;;;;5070956;28;20206;-74
2020/12/30 10:29:03;;;;;;;5.10;1.40;;;7.80;99.90;;;;;;5071314;28;20280;-74
2020/12/30 10:31:30;;;;;;;2.73;1.27;;;8.10;99.90;;;;;;5067716;28;20202;-74
2020/12/30 10:33:56;;;;;;;2.03;1.10;;;8.00;99.90;;;;;;5070802;28;20206;-74
2020/12/30 10:36:28;;;;;;;2.37;0.90;;;8.10;99.90;;;;;;5069424;28;20248;-74
2020/12/30 10:38:55;;;;;;;3.60;0.70;;;7.90;99.90;;;;;;5070395;28;20210;-75
2020/12/30 10:41:22;;;;;;;5.53;1.27;;;7.90;99.90;;;;;;5066079;28;20280;-75
2020/12/30 10:43:49;;;;;;;2.70;1.23;;;7.90;99.90;;;;;;5064564;28;20233;-75
2020/12/30 10:46:17;;;;;;;4.13;1.60;;;8.10;99.90;;;;;;5070486;28;20213;-76
2020/12/30 10:48:44;;;;;;;2.03;1.07;;;7.90;99.90;;;;;;5070771;28;20211;-75
2020/12/30 10:51:11;;;;;;;3.33;0.90;;;7.90;99.90;;;;;;5070717;28;20233;-76
2020/12/30 10:53:37;;;;;;;1.65;0.98;;;7.90;99.90;;;;;;5071198;28;20409;-74
2020/12/30 10:56:04;;;;;;;2.83;1.67;;;7.90;99.90;;;;;;5068061;28;20205;-75
2020/12/30 10:58:31;;;;;;;3.30;1.47;;;7.90;99.90;;;;;;5070191;28;20218;-74
2020/12/30 11:00:58;;;;;;;2.77;1.17;;;7.90;99.90;;;;;;5069368;28;20230;-75
2020/12/30 11:03:24;;;;;;;4.00;0.90;;;8.00;99.90;;;;;;5061017;28;20246;-76
2020/12/30 11:05:51;;;;;;;3.77;0.93;;;8.00;99.90;;;;;;5068198;28;20206;-75
2020/12/30 11:08:17;;;;;;;6.33;0.80;;;7.90;99.90;;;;;;5066102;28;20244;-76
2020/12/30 11:10:44;;;;;;;4.40;1.20;;;8.10;99.90;;;;;;5066929;28;20818;-75
2020/12/30 11:13:10;;;;;;;2.50;1.00;;;8.30;99.90;;;;;;5070284;28;20259;-77
2020/12/30 11:15:37;;;;;;;5.73;1.20;;;8.60;99.90;;;;;;5058359;28;20265;-76
2020/12/30 11:18:04;;;;;;;2.80;1.17;;;9.00;99.90;;;;;;5069867;28;20238;-77
2020/12/30 11:20:32;;;;;;;7.20;1.43;;;9.10;99.90;;;;;;5069157;28;20321;-78
2020/12/30 11:22:58;;;;;;;2.00;1.40;;;9.30;99.90;;;;;;5067297;28;20198;-75
2020/12/30 11:25:24;;;;;;;2.83;1.17;;;9.30;99.90;;;;;;5066194;28;20238;-75
2020/12/30 11:27:51;;;;;;;1.27;0.87;;;8.90;99.90;;;;;;5070221;28;20739;-74
2020/12/30 11:30:19;;;;;;;2.23;0.60;;;8.40;99.90;;;;;;5068889;28;20244;-74
2020/12/30 11:32:46;;;;;;;2.80;0.77;;;8.50;99.90;;;;;;5077400;28;20206;-75
2020/12/30 11:35:13;;;;;;;2.87;1.33;;;8.60;99.90;;;;;;5068967;28;20237;-74
2020/12/30 11:37:40;;;;;;;4.73;1.80;;;8.50;99.90;;;;;;5070324;28;20228;-75
2020/12/30 11:40:07;;;;;;;3.27;0.80;;;8.60;99.90;;;;;;5070555;28;20238;-77
2020/12/30 11:42:34;;;;;;;1.67;0.90;;;8.60;99.90;;;;;;5069065;28;20206;-77
2020/12/30 11:45:00;;;;;;;2.03;1.17;;;8.60;99.90;;;;;;5068880;28;20755;-77
2020/12/30 11:47:27;;;;;;;2.97;1.27;;;8.50;99.90;;;;;;5068620;28;20206;-76
2020/12/30 11:49:54;;;;;;;1.93;1.10;;;8.30;99.90;;;;;;5069417;28;20237;-78
2020/12/30 11:52:21;;;;;;;5.20;1.53;;;7.90;99.90;;;;;;5069026;28;20208;-77
2020/12/30 11:54:47;;;;;;;1.93;1.03;;;7.80;99.90;;;;;;5070160;28;20685;-77
2020/12/30 11:57:14;;;;;;;5.47;1.37;;;7.80;99.90;;;;;;5069583;28;20211;-76
2020/12/30 11:59:40;;;;;;;1.30;0.93;;;7.80;99.90;;;;;;5070463;28;20244;-78
2020/12/30 12:02:07;;;;;;;5.13;1.17;;;7.90;99.90;;;;;;5070321;28;20233;-78
2020/12/30 12:04:33;;;;;;;1.53;0.80;;;7.90;99.90;;;;;;5068663;28;20677;-77
2020/12/30 12:07:00;;;;;;;4.57;1.97;;;8.20;99.90;;;;;;5069595;28;20701;-75
2020/12/30 12:09:29;;;;;;;10.70;1.53;;;8.50;99.90;;;;;;5067358;28;20234;-76
2020/12/30 12:11:55;;;;;;;3.10;1.60;;;8.50;99.90;;;;;;5071764;28;20217;-76
2020/12/30 12:14:22;;;;;;;3.17;1.37;;;8.60;99.90;;;;;;5072752;28;20210;-78
2020/12/30 12:16:52;;;;;;;4.17;1.10;;;8.40;99.90;;;;;;5072600;28;20206;-77
2020/12/30 12:19:19;;;;;;;4.27;1.00;;;8.10;99.90;;;;;;5071320;28;20202;-78
2020/12/30 12:21:45;;;;;;;3.33;1.03;;;8.10;99.90;;;;;;5071800;28;20265;-75
2020/12/30 12:24:13;;;;;;;4.60;1.07;;;8.30;99.90;;;;;;5071636;28;20221;-76
2020/12/30 12:26:41;;;;;;;4.47;1.43;;;8.50;99.90;;;;;;5073776;28;20256;-78
2020/12/30 12:29:41;;;;;;;4.37;1.90;;;8.60;99.90;;;;;;5070241;28;20241;-78
2020/12/30 12:32:10;;;;;;;3.60;1.43;;;8.60;99.90;;;;;;5063112;28;20202;-76
2020/12/30 12:34:38;;;;;;;2.73;1.57;;;8.80;99.90;;;;;;5072910;28;20225;-77
2020/12/30 12:37:06;;;;;;;1.50;1.40;;;8.90;99.90;;;;;;5067850;28;20592;-77
2020/12/30 12:39:32;;;;;;;5.67;1.93;;;8.80;99.90;;;;;;5070666;28;20213;-79
2020/12/30 12:42:00;;;;;;;3.57;0.90;;;8.80;99.90;;;;;;5072467;28;20236;-77
2020/12/30 12:44:26;;;;;;;2.30;1.30;;;8.70;99.90;;;;;;5072243;28;20228;-76
2020/12/30 12:46:53;;;;;;;2.10;0.80;;;8.70;99.90;;;;;;5071125;28;20207;-75
2020/12/30 12:49:19;;;;;;;2.17;1.10;;;8.60;99.90;;;;;;5072429;28;20707;-75
2020/12/30 12:51:47;;;;;;;5.13;1.10;;;8.50;99.90;;;;;;5070786;28;20673;-74
2020/12/30 12:54:14;;;;;;;2.47;0.80;;;8.60;99.90;;;;;;5072552;28;20295;-75
2020/12/30 12:56:40;;;;;;;1.97;1.33;;;8.60;99.90;;;;;;5073703;28;20237;-77
2020/12/30 12:59:08;;;;;;;1.87;1.10;;;8.70;99.90;;;;;;5074780;28;20206;-75
2020/12/30 13:01:34;;;;;;;2.30;1.00;;;8.70;99.90;;;;;;5072569;28;20261;-76
2020/12/30 13:04:01;;;;;;;3.97;1.30;;;9.00;99.90;;;;;;5072453;28;20245;-77